Time,TemperatureF,DewpointF,PressureIn,WindDirection,WindDirectionDegrees,WindSpeedMPH,WindSpeedGustMPH,Humidity,HourlyPrecipIn,Conditions,Clouds,dailyrainin,SoftwareType,DateUTC
2013-08-06 00:22:00,70.0,66.0,30.03,North,0,0.0,-999.0,88,-99.99,,,-99.99,,2013-08-06 05:22:00,
2013-08-06 00:32:00,70.0,66.0,30.03,North,0,0.0,-999.0,88,-99.99,,,-99.99,,2013-08-06 05:32:00,
2013-08-06 00:43:00,70.0,66.0,30.03,North,0,0.0,-999.0,88,-99.99,,,-99.99,,2013-08-06 05:43:00,
2013-08-06 00:53:00,68.0,64.0,30.03,North,0,0.0,-999.0,88,-99.99,,,-99.99,,2013-08-06 05:53:00,
2013-08-06 01:22:00,70.0,66.0,30.03,North,0,0.0,-999.0,88,-99.99,,,-99.99,,2013-08-06 06:22:00,
2013-08-06 01:32:00,70.0,66.0,30.03,North,0,0.0,-999.0,88,-99.99,,,-99.99,,2013-08-06 06:32:00,
2013-08-06 01:43:00,70.0,66.0,30.03,North,0,0.0,-999.0,88,-99.99,,,-99.99,,2013-08-06 06:43:00,
2013-08-06 01:52:00,68.0,64.0,30.04,North,0,0.0,-999.0,88,-99.99,,,-99.99,,2013-08-06 06:52:00,
2013-08-06 02:01:00,68.0,66.0,30.03,North,0,0.0,-999.0,93,-99.99,,,-99.99,,2013-08-06 07:01:00,
2013-08-06 02:12:00,66.0,64.0,30.04,North,0,0.0,-999.0,93,-99.99,,,-99.99,,2013-08-06 07:12:00,
2013-08-06 02:22:00,66.0,64.0,30.03,North,0,0.0,-999.0,93,-99.99,,,-99.99,,2013-08-06 07:22:00,
2013-08-06 02:32:00,66.0,66.0,30.03,North,0,0.0,-999.0,100,-99.99,,,-99.99,,2013-08-06 07:32:00,
2013-08-06 02:43:00,66.0,64.0,30.03,North,0,0.0,-999.0,93,-99.99,,,-99.99,,2013-08-06 07:43:00,
2013-08-06 02:53:00,66.0,64.0,30.01,North,0,0.0,-999.0,93,-99.99,,,-99.99,,2013-08-06 07:53:00,
2013-08-06 03:01:00,66.0,64.0,30.02,North,0,0.0,-999.0,93,-99.99,,,-99.99,,2013-08-06 08:01:00,
2013-08-06 03:11:00,64.0,64.0,30.03,North,0,0.0,-999.0,100,-99.99,,,-99.99,,2013-08-06 08:11:00,
2013-08-06 03:21:00,66.0,64.0,30.03,North,0,0.0,-999.0,93,-99.99,,,-99.99,,2013-08-06 08:21:00,
2013-08-06 03:33:00,66.0,64.0,30.02,North,0,0.0,-999.0,93,-99.99,,,-99.99,,2013-08-06 08:33:00,
2013-08-06 03:43:00,66.0,64.0,30.02,North,0,0.0,-999.0,93,-99.99,,,-99.99,,2013-08-06 08:43:00,
2013-08-06 03:52:00,66.0,64.0,30.02,North,0,0.0,-999.0,93,-99.99,,,-99.99,,2013-08-06 08:52:00,
2013-08-06 04:01:00,66.0,64.0,30.02,North,0,0.0,-999.0,93,-99.99,,,-99.99,,2013-08-06 09:01:00,
2013-08-06 04:11:00,66.0,64.0,30.00,North,0,0.0,-999.0,93,-99.99,,,-99.99,,2013-08-06 09:11:00,
2013-08-06 04:22:00,66.0,64.0,29.99,North,0,0.0,-999.0,93,-99.99,,,-99.99,,2013-08-06 09:22:00,
2013-08-06 04:32:00,66.0,64.0,29.99,North,0,0.0,-999.0,93,-99.99,,,-99.99,,2013-08-06 09:32:00,
2013-08-06 04:43:00,64.0,63.0,29.99,North,0,0.0,-999.0,93,-99.99,,,-99.99,,2013-08-06 09:43:00,
2013-08-06 05:01:00,64.0,63.0,29.97,SW,225,8.0,-999.0,93,-99.99,,,-99.99,,2013-08-06 10:01:00,
2013-08-06 05:11:00,64.0,63.0,29.97,North,0,0.0,-999.0,93,-99.99,,,-99.99,,2013-08-06 10:11:00,
2013-08-06 05:22:00,64.0,63.0,29.98,North,0,0.0,-999.0,93,-99.99,,,-99.99,,2013-08-06 10:22:00,
2013-08-06 05:32:00,64.0,63.0,29.98,North,0,0.0,-999.0,93,-99.99,,,-99.99,,2013-08-06 10:32:00,
2013-08-06 05:43:00,64.0,64.0,29.98,WSW,249,3.0,-999.0,100,-99.99,,,-99.99,,2013-08-06 10:43:00,
2013-08-06 05:52:00,64.0,64.0,29.98,North,0,0.0,-999.0,100,-99.99,,,-99.99,,2013-08-06 10:52:00,
2013-08-06 06:01:00,64.0,64.0,30.00,North,0,0.0,-999.0,100,-99.99,,,-99.99,,2013-08-06 11:01:00,
2013-08-06 06:21:00,64.0,64.0,30.01,North,0,0.0,-999.0,100,-99.99,,,-99.99,,2013-08-06 11:21:00,
2013-08-06 06:32:00,64.0,64.0,30.00,North,0,0.0,-999.0,100,-99.99,,,-99.99,,2013-08-06 11:32:00,
2013-08-06 06:43:00,64.0,64.0,30.00,North,0,0.0,-999.0,100,-99.99,,,-99.99,,2013-08-06 11:43:00,
2013-08-06 06:53:00,64.0,64.0,30.01,North,0,0.0,-999.0,100,-99.99,,,-99.99,,2013-08-06 11:53:00,
2013-08-06 07:01:00,66.0,66.0,30.02,North,0,0.0,-999.0,100,-99.99,,,-99.99,,2013-08-06 12:01:00,
2013-08-06 07:22:00,66.0,66.0,30.04,North,0,0.0,-999.0,100,-99.99,,,-99.99,,2013-08-06 12:22:00,
2013-08-06 07:31:00,66.0,66.0,30.04,WNW,294,5.0,-999.0,100,-99.99,,,-99.99,,2013-08-06 12:31:00,
2013-08-06 07:43:00,66.0,66.0,30.04,WSW,249,5.0,-999.0,100,-99.99,,,-99.99,,2013-08-06 12:43:00,
2013-08-06 07:52:00,66.0,66.0,30.03,WSW,250,8.0,-999.0,100,-99.99,,,-99.99,,2013-08-06 12:52:00,
2013-08-06 08:01:00,66.0,66.0,30.03,WSW,250,7.0,-999.0,100,-99.99,,,-99.99,,2013-08-06 13:01:00,
2013-08-06 08:11:00,66.0,66.0,30.03,SW,225,8.0,-999.0,100,-99.99,,,-99.99,,2013-08-06 13:11:00,
2013-08-06 08:22:00,66.0,66.0,30.01,SW,225,9.0,-999.0,100,-99.99,,,-99.99,,2013-08-06 13:22:00,
2013-08-06 08:32:00,66.0,66.0,30.00,SSW,204,6.0,-999.0,100,-99.99,,,-99.99,,2013-08-06 13:32:00,
2013-08-06 08:42:00,66.0,66.0,29.99,SW,225,6.0,-999.0,100,-99.99,,,-99.99,,2013-08-06 13:42:00,
2013-08-06 09:01:00,66.0,66.0,29.96,SW,225,12.0,-999.0,100,-99.99,,,-99.99,,2013-08-06 14:01:00,
2013-08-06 09:11:00,66.0,66.0,29.93,SW,225,13.0,-999.0,100,-99.99,,,-99.99,,2013-08-06 14:11:00,
2013-08-06 09:22:00,68.0,68.0,29.93,North,0,10.0,-999.0,100,-99.99,,,-99.99,,2013-08-06 14:22:00,
2013-08-06 09:32:00,68.0,68.0,29.92,North,0,8.0,-999.0,100,-99.99,,,-99.99,,2013-08-06 14:32:00,
2013-08-06 09:42:00,70.0,68.0,29.92,SSW,204,6.0,-999.0,94,-99.99,,,-99.99,,2013-08-06 14:42:00,
2013-08-06 09:53:00,70.0,68.0,29.91,SSW,205,8.0,-999.0,94,-99.99,,,-99.99,,2013-08-06 14:53:00,
2013-08-06 10:02:00,70.0,68.0,29.91,West,269,5.0,-999.0,94,-99.99,,,-99.99,,2013-08-06 15:02:00,
2013-08-06 10:11:00,70.0,70.0,29.91,SSW,204,5.0,-999.0,100,-99.99,,,-99.99,,2013-08-06 15:11:00,
2013-08-06 10:22:00,72.0,72.0,29.92,SW,225,6.0,-999.0,100,-99.99,,,-99.99,,2013-08-06 15:22:00,
2013-08-06 10:33:00,72.0,72.0,29.93,WSW,249,10.0,-999.0,100,-99.99,,,-99.99,,2013-08-06 15:33:00,
2013-08-06 10:44:00,72.0,72.0,29.94,NW,315,3.0,-999.0,100,-99.99,,,-99.99,,2013-08-06 15:44:00,
2013-08-06 10:52:00,73.0,72.0,29.97,North,0,0.0,-999.0,94,-99.99,,,-99.99,,2013-08-06 15:52:00,
2013-08-06 11:02:00,73.0,73.0,29.97,North,0,0.0,-999.0,100,-99.99,,,-99.99,,2013-08-06 16:02:00,
2013-08-06 11:11:00,73.0,72.0,29.98,North,0,0.0,-999.0,94,-99.99,,,-99.99,,2013-08-06 16:11:00,
2013-08-06 11:22:00,73.0,72.0,29.98,North,0,0.0,-999.0,94,-99.99,,,-99.99,,2013-08-06 16:22:00,
2013-08-06 11:32:00,75.0,73.0,29.98,NNW,334,8.0,-999.0,94,-99.99,,,-99.99,,2013-08-06 16:32:00,
2013-08-06 11:42:00,75.0,73.0,29.98,North,0,0.0,-999.0,94,-99.99,,,-99.99,,2013-08-06 16:42:00,
2013-08-06 11:52:00,77.0,73.0,29.98,North,0,0.0,-999.0,88,-99.99,,,-99.99,,2013-08-06 16:52:00,
2013-08-06 12:02:00,77.0,72.0,29.99,West,269,3.0,-999.0,83,-99.99,,,-99.99,,2013-08-06 17:02:00,
2013-08-06 12:11:00,79.0,73.0,29.99,North,0,0.0,-999.0,83,-99.99,,,-99.99,,2013-08-06 17:11:00,
2013-08-06 12:21:00,81.0,73.0,29.99,North,0,0.0,-999.0,78,-99.99,,,-99.99,,2013-08-06 17:21:00,
2013-08-06 12:32:00,81.0,72.0,29.99,West,269,7.0,-999.0,74,-99.99,,,-99.99,,2013-08-06 17:32:00,
2013-08-06 12:43:00,81.0,72.0,29.98,West,269,7.0,-999.0,74,-99.99,,,-99.99,,2013-08-06 17:43:00,
2013-08-06 12:52:00,81.0,72.0,29.98,North,0,0.0,-999.0,74,-99.99,,,-99.99,,2013-08-06 17:52:00,
2013-08-06 13:01:00,81.0,72.0,29.98,West,269,3.0,-999.0,74,-99.99,,,-99.99,,2013-08-06 18:01:00,
2013-08-06 13:11:00,82.0,72.0,29.98,West,269,3.0,-999.0,69,-99.99,,,-99.99,,2013-08-06 18:11:00,
2013-08-06 13:22:00,82.0,72.0,29.99,WNW,295,3.0,-999.0,69,-99.99,,,-99.99,,2013-08-06 18:22:00,
2013-08-06 13:32:00,82.0,70.0,29.98,West,269,3.0,-999.0,65,-99.99,,,-99.99,,2013-08-06 18:32:00,
2013-08-06 13:43:00,82.0,68.0,29.98,WNW,295,7.0,-999.0,61,-99.99,,,-99.99,,2013-08-06 18:43:00,
2013-08-06 13:52:00,84.0,70.0,29.98,North,0,0.0,-999.0,62,-99.99,,,-99.99,,2013-08-06 18:52:00,
2013-08-06 14:01:00,84.0,72.0,29.98,North,0,0.0,-999.0,65,-99.99,,,-99.99,,2013-08-06 19:01:00,
2013-08-06 14:11:00,84.0,68.0,29.98,WNW,295,8.0,-999.0,58,-99.99,,,-99.99,,2013-08-06 19:11:00,
2013-08-06 14:21:00,84.0,70.0,29.98,North,0,0.0,-999.0,62,-99.99,,,-99.99,,2013-08-06 19:21:00,
2013-08-06 14:32:00,84.0,70.0,29.99,North,0,0.0,-999.0,62,-99.99,,,-99.99,,2013-08-06 19:32:00,
2013-08-06 14:42:00,84.0,70.0,29.98,North,0,0.0,-999.0,62,-99.99,,,-99.99,,2013-08-06 19:42:00,
2013-08-06 14:52:00,84.0,70.0,29.98,North,0,0.0,-999.0,62,-99.99,,,-99.99,,2013-08-06 19:52:00,
2013-08-06 15:01:00,84.0,68.0,29.98,WNW,295,7.0,-999.0,58,-99.99,,,-99.99,,2013-08-06 20:01:00,
2013-08-06 15:11:00,84.0,66.0,29.98,North,0,0.0,-999.0,54,-99.99,,,-99.99,,2013-08-06 20:11:00,
2013-08-06 15:22:00,84.0,68.0,29.98,North,0,0.0,-999.0,58,-99.99,,,-99.99,,2013-08-06 20:22:00,
2013-08-06 15:32:00,84.0,68.0,29.98,North,0,0.0,-999.0,58,-99.99,,,-99.99,,2013-08-06 20:32:00,
2013-08-06 15:44:00,84.0,70.0,29.98,WNW,294,5.0,-999.0,62,-99.99,,,-99.99,,2013-08-06 20:44:00,
2013-08-06 15:52:00,86.0,68.0,29.98,NW,315,5.0,-999.0,55,-99.99,,,-99.99,,2013-08-06 20:52:00,
2013-08-06 16:01:00,86.0,68.0,29.98,North,0,0.0,-999.0,55,-99.99,,,-99.99,,2013-08-06 21:01:00,
2013-08-06 16:22:00,86.0,68.0,29.98,NW,315,3.0,-999.0,55,-99.99,,,-99.99,,2013-08-06 21:22:00,
2013-08-06 16:32:00,86.0,68.0,29.98,West,269,3.0,-999.0,55,-99.99,,,-99.99,,2013-08-06 21:32:00,
2013-08-06 16:43:00,86.0,70.0,29.98,WNW,295,3.0,-999.0,58,-99.99,,,-99.99,,2013-08-06 21:43:00,
2013-08-06 16:52:00,86.0,70.0,29.98,WNW,295,3.0,-999.0,58,-99.99,,,-99.99,,2013-08-06 21:52:00,
2013-08-06 17:01:00,86.0,70.0,29.98,NW,315,6.0,-999.0,58,-99.99,,,-99.99,,2013-08-06 22:01:00,
2013-08-06 17:11:00,86.0,72.0,29.98,North,0,0.0,-999.0,62,-99.99,,,-99.99,,2013-08-06 22:11:00,
2013-08-06 17:21:00,86.0,72.0,29.98,WNW,295,3.0,-999.0,62,-99.99,,,-99.99,,2013-08-06 22:21:00,
2013-08-06 17:32:00,86.0,72.0,29.97,WNW,295,7.0,-999.0,62,-99.99,,,-99.99,,2013-08-06 22:32:00,
2013-08-06 17:43:00,84.0,72.0,29.97,North,0,0.0,-999.0,65,-99.99,,,-99.99,,2013-08-06 22:43:00,
2013-08-06 17:52:00,84.0,72.0,29.97,North,0,0.0,-999.0,65,-99.99,,,-99.99,,2013-08-06 22:52:00,
2013-08-06 18:01:00,84.0,72.0,29.97,North,0,0.0,-999.0,65,-99.99,,,-99.99,,2013-08-06 23:01:00,
2013-08-06 18:11:00,84.0,72.0,29.97,West,269,8.0,-999.0,65,-99.99,,,-99.99,,2013-08-06 23:11:00,
2013-08-06 18:22:00,84.0,72.0,29.97,West,269,7.0,-999.0,65,-99.99,,,-99.99,,2013-08-06 23:22:00,
2013-08-06 18:32:00,84.0,72.0,29.96,NW,315,7.0,-999.0,65,-99.99,,,-99.99,,2013-08-06 23:32:00,
2013-08-06 18:43:00,84.0,72.0,29.96,WNW,294,6.0,-999.0,65,-99.99,,,-99.99,,2013-08-06 23:43:00,
2013-08-06 18:52:00,84.0,72.0,29.96,West,269,6.0,-999.0,65,-99.99,,,-99.99,,2013-08-06 23:52:00,
2013-08-06 19:01:00,84.0,72.0,29.96,North,0,0.0,-999.0,65,-99.99,,,-99.99,,2013-08-07 00:01:00,
2013-08-06 19:11:00,84.0,72.0,29.96,West,269,3.0,-999.0,65,-99.99,,,-99.99,,2013-08-07 00:11:00,
2013-08-06 19:21:00,82.0,70.0,29.96,WNW,295,3.0,-999.0,65,-99.99,,,-99.99,,2013-08-07 00:21:00,
2013-08-06 19:32:00,82.0,72.0,29.96,North,0,0.0,-999.0,69,-99.99,,,-99.99,,2013-08-07 00:32:00,
2013-08-06 19:43:00,82.0,72.0,29.95,North,0,0.0,-999.0,69,-99.99,,,-99.99,,2013-08-07 00:43:00,
2013-08-06 19:52:00,82.0,72.0,29.95,North,0,0.0,-999.0,69,-99.99,,,-99.99,,2013-08-07 00:52:00,
2013-08-06 20:01:00,81.0,72.0,29.95,North,0,0.0,-999.0,74,-99.99,,,-99.99,,2013-08-07 01:01:00,
2013-08-06 20:11:00,81.0,72.0,29.96,West,269,5.0,-999.0,74,-99.99,,,-99.99,,2013-08-07 01:11:00,
2013-08-06 20:21:00,81.0,73.0,29.96,WSW,249,3.0,-999.0,78,-99.99,,,-99.99,,2013-08-07 01:21:00,
2013-08-06 20:32:00,81.0,73.0,29.96,North,0,0.0,-999.0,78,-99.99,,,-99.99,,2013-08-07 01:32:00,
2013-08-06 20:43:00,81.0,73.0,29.97,West,269,5.0,-999.0,78,-99.99,,,-99.99,,2013-08-07 01:43:00,
2013-08-06 20:52:00,79.0,73.0,29.97,North,0,0.0,-999.0,83,-99.99,,,-99.99,,2013-08-07 01:52:00,
2013-08-06 21:02:00,79.0,73.0,29.97,North,0,0.0,-999.0,83,-99.99,,,-99.99,,2013-08-07 02:02:00,
2013-08-06 21:11:00,79.0,72.0,29.98,North,0,0.0,-999.0,78,-99.99,,,-99.99,,2013-08-07 02:11:00,
2013-08-06 21:22:00,79.0,73.0,29.98,North,0,0.0,-999.0,83,-99.99,,,-99.99,,2013-08-07 02:22:00,
2013-08-06 21:33:00,77.0,72.0,29.98,North,0,0.0,-999.0,83,-99.99,,,-99.99,,2013-08-07 02:33:00,
2013-08-06 21:43:00,77.0,72.0,29.98,North,0,0.0,-999.0,83,-99.99,,,-99.99,,2013-08-07 02:43:00,
2013-08-06 21:53:00,77.0,73.0,29.98,WNW,295,2.0,-999.0,88,-99.99,,,-99.99,,2013-08-07 02:53:00,
2013-08-06 22:01:00,75.0,72.0,29.99,North,0,0.0,-999.0,88,-99.99,,,-99.99,,2013-08-07 03:01:00,
2013-08-06 22:11:00,75.0,73.0,29.99,North,0,0.0,-999.0,94,-99.99,,,-99.99,,2013-08-07 03:11:00,
2013-08-06 22:22:00,75.0,72.0,29.99,North,0,0.0,-999.0,88,-99.99,,,-99.99,,2013-08-07 03:22:00,
2013-08-06 22:32:00,73.0,72.0,30.00,North,0,0.0,-999.0,94,-99.99,,,-99.99,,2013-08-07 03:32:00,
2013-08-06 22:43:00,73.0,72.0,30.00,North,0,0.0,-999.0,94,-99.99,,,-99.99,,2013-08-07 03:43:00,
2013-08-06 22:52:00,73.0,72.0,30.00,North,0,0.0,-999.0,94,-99.99,,,-99.99,,2013-08-07 03:52:00,
2013-08-06 23:01:00,73.0,72.0,30.00,North,0,0.0,-999.0,94,-99.99,,,-99.99,,2013-08-07 04:01:00,
2013-08-06 23:11:00,72.0,72.0,30.00,North,0,0.0,-999.0,100,-99.99,,,-99.99,,2013-08-07 04:11:00,
2013-08-06 23:33:00,72.0,70.0,30.01,North,0,0.0,-999.0,94,-99.99,,,-99.99,,2013-08-07 04:33:00,
2013-08-06 23:43:00,72.0,70.0,30.01,North,0,0.0,-999.0,94,-99.99,,,-99.99,,2013-08-07 04:43:00,
2013-08-06 23:52:00,72.0,70.0,30.00,North,0,0.0,-999.0,94,-99.99,,,-99.99,,2013-08-07 04:52:00,